Time;durP1;ratioP1;P1;durP2;ratioP2;P2;SDS_P1;SDS_P2;PMS_P1;PMS_P2;Temp;Humidity;BMP_temperature;BMP_pressure;BME280_temperature;BME280_humidity;BME280_pressure;Samples;Min_cycle;Max_cycle;Signal;HPM_P1;HPM_P2
2023/12/02 00:01:54;;;;;;;46.42;26.10;;;0.60;99.90;;;;;;5011975;28;20712;-68
2023/12/02 00:04:22;;;;;;;49.97;25.73;;;0.50;99.90;;;;;;5012656;28;20225;-71
2023/12/02 00:06:48;;;;;;;44.50;26.65;;;0.50;99.90;;;;;;5011353;28;20211;-69
2023/12/02 00:09:17;;;;;;;44.38;25.23;;;0.50;99.90;;;;;;5016383;28;20608;-68
2023/12/02 00:11:44;;;;;;;52.72;26.80;;;0.60;99.90;;;;;;5006673;28;20204;-70
2023/12/02 00:14:10;;;;;;;43.28;23.95;;;0.60;99.90;;;;;;5007218;28;20249;-71
2023/12/02 00:16:38;;;;;;;38.97;22.67;;;0.70;99.90;;;;;;5009637;28;20693;-69
2023/12/02 00:19:05;;;;;;;56.08;25.05;;;0.60;99.90;;;;;;5018248;28;20290;-69
2023/12/02 00:21:32;;;;;;;45.92;26.20;;;0.80;99.90;;;;;;5001912;28;20695;-69
2023/12/02 00:23:59;;;;;;;45.50;25.55;;;0.70;99.90;;;;;;5007034;28;20252;-68
2023/12/02 00:26:28;;;;;;;45.83;25.73;;;0.80;99.90;;;;;;4997061;28;20210;-69
2023/12/02 00:28:55;;;;;;;48.80;27.02;;;0.80;99.90;;;;;;5004909;28;20264;-70
2023/12/02 00:31:22;;;;;;;52.83;26.90;;;0.80;99.90;;;;;;4997334;28;20233;-70
2023/12/02 00:33:48;;;;;;;45.03;25.38;;;0.70;99.90;;;;;;4998248;28;20631;-70
2023/12/02 00:36:16;;;;;;;46.70;26.83;;;0.70;99.90;;;;;;5005369;28;20234;-70
2023/12/02 00:38:43;;;;;;;55.87;30.40;;;0.80;99.90;;;;;;5004806;28;20284;-69
2023/12/02 00:41:10;;;;;;;51.80;26.25;;;0.80;99.90;;;;;;5003690;28;20905;-67
2023/12/02 00:43:38;;;;;;;53.80;25.88;;;0.80;99.90;;;;;;5003513;28;20309;-68
2023/12/02 00:46:06;;;;;;;46.95;25.40;;;0.80;99.90;;;;;;5002439;28;20253;-72
2023/12/02 00:48:33;;;;;;;54.22;29.63;;;0.80;99.90;;;;;;5012290;28;20229;-71
2023/12/02 00:51:00;;;;;;;55.10;27.65;;;0.70;99.90;;;;;;4999582;28;20606;-69
2023/12/02 00:53:27;;;;;;;48.25;25.92;;;0.70;99.90;;;;;;5002314;28;20242;-69
2023/12/02 00:55:54;;;;;;;50.22;26.73;;;0.80;99.90;;;;;;4999607;28;20229;-71
2023/12/02 00:58:21;;;;;;;54.35;26.17;;;0.90;99.90;;;;;;5015813;28;20237;-68
2023/12/02 01:00:49;;;;;;;49.60;25.55;;;1.00;99.90;;;;;;5003774;28;20209;-70
2023/12/02 01:03:16;;;;;;;56.55;26.35;;;0.90;99.90;;;;;;5021997;28;20229;-68
2023/12/02 01:05:43;;;;;;;50.97;29.55;;;0.90;99.90;;;;;;5005883;28;20254;-69
2023/12/02 01:08:10;;;;;;;58.03;28.33;;;0.80;99.90;;;;;;5002995;28;20263;-68
2023/12/02 01:10:37;;;;;;;50.05;26.75;;;0.80;99.90;;;;;;5001919;28;20198;-69
2023/12/02 01:13:04;;;;;;;47.22;25.85;;;0.80;99.90;;;;;;5001120;28;20280;-71
2023/12/02 01:15:31;;;;;;;37.78;22.10;;;0.90;99.90;;;;;;5007382;28;20275;-72
2023/12/02 01:17:59;;;;;;;40.75;24.75;;;0.80;99.90;;;;;;5001852;28;20723;-70
2023/12/02 01:20:26;;;;;;;50.92;26.15;;;0.70;99.90;;;;;;5008163;28;20261;-72
2023/12/02 01:22:53;;;;;;;44.90;27.10;;;0.80;99.90;;;;;;4999895;28;20244;-71
2023/12/02 01:25:20;;;;;;;49.78;28.90;;;0.90;99.90;;;;;;4997083;28;20656;-68
2023/12/02 01:27:47;;;;;;;41.90;24.42;;;0.80;99.90;;;;;;5009526;28;20212;-69
2023/12/02 01:30:15;;;;;;;57.25;26.85;;;0.80;99.90;;;;;;4996414;28;20244;-71
2023/12/02 01:32:41;;;;;;;55.10;30.98;;;0.80;99.90;;;;;;4995981;28;20658;-69
2023/12/02 01:35:10;;;;;;;51.65;27.60;;;0.90;99.90;;;;;;5001854;28;20218;-70
2023/12/02 01:37:37;;;;;;;53.33;27.67;;;0.90;99.90;;;;;;5003344;28;20681;-70
2023/12/02 01:40:04;;;;;;;56.33;27.98;;;0.90;99.90;;;;;;5007236;28;20241;-71
2023/12/02 01:42:31;;;;;;;61.53;28.00;;;0.90;99.90;;;;;;4995691;28;20620;-72
2023/12/02 01:44:58;;;;;;;60.47;30.13;;;0.80;99.90;;;;;;4998967;28;20261;-70
2023/12/02 01:47:25;;;;;;;66.72;31.20;;;0.80;99.90;;;;;;5001150;28;20228;-69
2023/12/02 01:49:53;;;;;;;55.17;29.02;;;0.80;99.90;;;;;;5003508;28;20210;-69
2023/12/02 01:52:21;;;;;;;59.00;31.30;;;0.90;99.90;;;;;;5002771;28;20205;-72
2023/12/02 01:54:48;;;;;;;62.03;30.58;;;1.00;99.90;;;;;;5006658;28;20692;-71
2023/12/02 01:57:15;;;;;;;62.42;32.22;;;1.00;99.90;;;;;;4999271;28;20202;-71
2023/12/02 01:59:52;;;;;;;53.03;30.58;;;0.90;99.90;;;;;;5006549;28;20268;-72
2023/12/02 02:02:19;;;;;;;62.90;34.15;;;0.90;99.90;;;;;;4998936;28;20253;-69
2023/12/02 02:04:48;;;;;;;68.18;33.08;;;1.00;99.90;;;;;;5003865;28;20666;-68
2023/12/02 02:07:15;;;;;;;59.15;28.42;;;1.00;99.90;;;;;;4996766;28;20213;-67
2023/12/02 02:09:47;;;;;;;61.78;30.80;;;0.90;99.90;;;;;;5001648;28;20287;-69
2023/12/02 02:12:15;;;;;;;55.58;29.27;;;0.90;99.90;;;;;;5011209;28;20293;-68
2023/12/02 02:14:43;;;;;;;63.15;30.10;;;1.00;99.90;;;;;;5002510;28;20228;-69
2023/12/02 02:17:10;;;;;;;68.47;33.33;;;1.10;99.90;;;;;;5003127;28;20205;-71
2023/12/02 02:19:39;;;;;;;68.90;31.27;;;1.10;99.90;;;;;;5001598;28;20210;-70
2023/12/02 02:22:07;;;;;;;64.13;31.13;;;1.00;99.90;;;;;;5001202;28;20243;-71
2023/12/02 02:24:34;;;;;;;75.78;34.22;;;1.00;99.90;;;;;;5000243;28;20297;-69
2023/12/02 02:27:01;;;;;;;69.75;33.63;;;1.00;99.90;;;;;;5002781;28;20749;-69
2023/12/02 02:29:28;;;;;;;71.32;32.85;;;0.90;99.90;;;;;;5002287;28;20198;-69
2023/12/02 02:31:55;;;;;;;74.97;35.05;;;1.00;99.90;;;;;;5004815;28;20241;-71
2023/12/02 02:34:22;;;;;;;72.53;34.95;;;0.90;99.90;;;;;;5008738;28;20246;-68
2023/12/02 02:36:49;;;;;;;71.68;33.00;;;0.90;99.90;;;;;;5000439;28;20678;-70
2023/12/02 02:39:17;;;;;;;81.28;38.53;;;1.00;99.90;;;;;;5000709;28;20234;-69
2023/12/02 02:41:44;;;;;;;77.20;35.80;;;1.10;99.90;;;;;;4997637;28;20289;-69
2023/12/02 02:44:11;;;;;;;69.15;33.47;;;1.10;99.90;;;;;;5001146;28;20969;-69
2023/12/02 02:46:38;;;;;;;67.97;33.15;;;1.20;99.90;;;;;;4995463;28;20198;-70
2023/12/02 02:49:05;;;;;;;71.32;34.47;;;1.20;99.90;;;;;;5012850;28;20205;-70
2023/12/02 02:51:32;;;;;;;78.68;35.90;;;1.20;99.90;;;;;;5006528;28;20208;-69
2023/12/02 02:53:59;;;;;;;65.25;31.83;;;1.10;99.90;;;;;;5016678;28;20667;-70
2023/12/02 02:56:27;;;;;;;66.00;33.97;;;1.20;99.90;;;;;;5018135;28;20676;-69
2023/12/02 02:58:54;;;;;;;72.97;33.60;;;1.20;99.90;;;;;;5013115;28;20241;-70
2023/12/02 03:01:21;;;;;;;71.57;36.05;;;1.10;99.90;;;;;;5006942;28;20238;-71
2023/12/02 03:03:49;;;;;;;87.93;35.85;;;1.10;99.90;;;;;;5003847;28;20229;-69
2023/12/02 03:06:16;;;;;;;68.93;34.00;;;1.10;99.90;;;;;;4994721;28;20261;-72
2023/12/02 03:08:43;;;;;;;73.10;32.58;;;1.10;99.90;;;;;;5012192;28;20211;-71
2023/12/02 03:11:10;;;;;;;80.13;37.42;;;1.10;99.90;;;;;;4997374;28;20233;-69
2023/12/02 03:13:38;;;;;;;69.47;35.97;;;1.10;99.90;;;;;;4999971;28;20340;-69
2023/12/02 03:16:06;;;;;;;67.80;34.13;;;1.10;99.90;;;;;;4997642;28;20630;-72
2023/12/02 03:18:33;;;;;;;73.13;35.70;;;1.10;99.90;;;;;;5002831;28;20653;-73
2023/12/02 03:21:00;;;;;;;65.78;34.35;;;1.10;99.90;;;;;;4997581;28;20210;-68
2023/12/02 03:23:27;;;;;;;68.68;33.03;;;1.10;99.90;;;;;;4998672;28;20224;-71
2023/12/02 03:25:54;;;;;;;66.75;34.85;;;1.20;99.90;;;;;;4997913;28;20265;-69
2023/12/02 03:28:22;;;;;;;71.55;35.22;;;1.30;99.90;;;;;;4998353;28;20652;-69
2023/12/02 03:30:50;;;;;;;70.95;36.03;;;1.30;99.90;;;;;;4998170;28;20202;-70
2023/12/02 03:33:17;;;;;;;71.40;33.58;;;1.20;99.90;;;;;;4993355;28;20237;-69
2023/12/02 03:35:44;;;;;;;91.45;39.55;;;1.20;99.90;;;;;;4993374;28;20249;-69
2023/12/02 03:38:11;;;;;;;72.97;36.60;;;1.10;99.90;;;;;;5000104;28;20566;-69
2023/12/02 03:40:38;;;;;;;69.13;32.88;;;1.20;99.90;;;;;;4995084;28;20240;-71
2023/12/02 03:43:04;;;;;;;71.25;35.08;;;1.10;99.90;;;;;;4999287;28;20244;-71
2023/12/02 03:45:31;;;;;;;67.20;34.00;;;1.20;99.90;;;;;;4995393;28;20758;-67
2023/12/02 03:48:00;;;;;;;75.07;38.13;;;1.30;99.90;;;;;;5006405;28;20236;-72
2023/12/02 03:50:27;;;;;;;82.38;35.53;;;1.20;99.90;;;;;;5001221;28;20284;-70
2023/12/02 03:52:53;;;;;;;80.72;37.15;;;1.20;99.90;;;;;;4995214;28;20209;-68
2023/12/02 03:55:20;;;;;;;82.22;35.65;;;1.20;99.90;;;;;;4999848;28;20245;-71
2023/12/02 03:57:47;;;;;;;82.72;37.83;;;1.20;99.90;;;;;;5005156;28;20290;-68
2023/12/02 04:00:15;;;;;;;68.07;31.42;;;1.30;99.90;;;;;;4998097;28;20252;-70
2023/12/02 04:02:42;;;;;;;57.40;30.52;;;1.30;99.90;;;;;;4995536;28;20206;-69
2023/12/02 04:05:13;;;;;;;72.07;34.20;;;1.30;99.90;;;;;;4997401;28;20229;-68
2023/12/02 04:07:41;;;;;;;69.00;38.33;;;1.20;99.90;;;;;;4998983;28;20487;-72
2023/12/02 04:10:09;;;;;;;88.90;37.60;;;1.20;99.90;;;;;;5000769;28;20206;-69
2023/12/02 04:12:36;;;;;;;66.55;33.00;;;1.20;99.90;;;;;;4993932;28;20210;-69
2023/12/02 04:15:04;;;;;;;62.58;33.70;;;1.30;99.90;;;;;;4995308;28;20260;-69
2023/12/02 04:17:31;;;;;;;74.80;34.72;;;1.30;99.90;;;;;;5001291;28;20287;-70
2023/12/02 04:19:58;;;;;;;69.20;32.40;;;1.30;99.90;;;;;;5001156;28;20292;-70
2023/12/02 04:22:26;;;;;;;67.97;36.65;;;1.40;99.90;;;;;;5011469;28;20295;-70
2023/12/02 04:24:53;;;;;;;61.20;31.70;;;1.30;99.90;;;;;;4996554;28;20237;-68
2023/12/02 04:27:20;;;;;;;76.82;33.83;;;1.40;99.90;;;;;;4999573;28;20621;-67
2023/12/02 04:29:47;;;;;;;61.13;33.15;;;1.40;99.90;;;;;;5132153;22;20241;-70
2023/12/02 04:32:14;;;;;;;59.88;29.75;;;1.40;99.90;;;;;;5038846;28;20237;-72
2023/12/02 04:34:41;;;;;;;65.80;34.63;;;1.50;99.90;;;;;;5037990;28;20247;-70
2023/12/02 04:37:08;;;;;;;56.92;31.50;;;1.50;99.90;;;;;;5050073;28;20678;-67
2023/12/02 04:39:37;;;;;;;62.75;32.60;;;1.40;99.90;;;;;;5044014;28;20215;-69
2023/12/02 04:42:04;;;;;;;76.00;35.10;;;1.40;99.90;;;;;;5047049;28;20571;-71
2023/12/02 04:44:31;;;;;;;51.67;30.02;;;1.40;99.90;;;;;;5045512;28;20256;-71
2023/12/02 04:46:58;;;;;;;73.40;33.42;;;1.40;99.90;;;;;;5052057;28;20233;-69
2023/12/02 04:49:25;;;;;;;58.45;31.63;;;1.40;99.90;;;;;;5049556;28;20250;-71
2023/12/02 04:51:52;;;;;;;59.83;30.55;;;1.50;99.90;;;;;;5046530;28;20203;-70
2023/12/02 04:54:20;;;;;;;52.72;28.40;;;1.50;99.90;;;;;;5050562;28;20215;-71
2023/12/02 04:56:48;;;;;;;58.58;31.00;;;1.60;99.90;;;;;;5048517;28;20204;-67
2023/12/02 04:59:15;;;;;;;58.72;28.30;;;1.50;99.90;;;;;;5051894;28;20312;-70
2023/12/02 05:01:43;;;;;;;59.92;30.50;;;1.50;99.90;;;;;;5049796;28;20204;-69
2023/12/02 05:04:09;;;;;;;56.60;29.48;;;1.40;99.90;;;;;;5044183;28;20243;-70
2023/12/02 05:06:36;;;;;;;50.25;28.13;;;1.40;99.90;;;;;;5052198;28;20228;-71
2023/12/02 05:09:04;;;;;;;50.75;29.80;;;1.30;99.90;;;;;;5049240;28;20231;-71
2023/12/02 05:11:31;;;;;;;52.90;28.45;;;1.30;99.90;;;;;;5050710;28;20251;-70
2023/12/02 05:13:59;;;;;;;50.60;26.10;;;1.30;99.90;;;;;;5053639;28;20258;-70
2023/12/02 05:16:26;;;;;;;57.03;28.23;;;1.20;99.90;;;;;;5052094;28;20219;-71
2023/12/02 05:18:53;;;;;;;49.67;26.73;;;1.20;99.90;;;;;;5051928;28;20668;-69
2023/12/02 05:21:20;;;;;;;48.50;28.30;;;1.30;99.90;;;;;;5048706;28;20294;-70
2023/12/02 05:23:47;;;;;;;60.80;29.15;;;1.30;99.90;;;;;;5048151;28;20201;-71
2023/12/02 05:26:14;;;;;;;52.42;27.58;;;1.30;99.90;;;;;;5053414;28;20223;-69
2023/12/02 05:28:41;;;;;;;52.97;28.75;;;1.30;99.90;;;;;;5048052;28;20211;-71
2023/12/02 05:31:10;;;;;;;49.65;28.70;;;1.30;99.90;;;;;;5050527;28;20227;-69
2023/12/02 05:33:36;;;;;;;58.35;31.45;;;1.30;99.90;;;;;;5042481;28;20204;-71
2023/12/02 05:36:04;;;;;;;60.05;27.83;;;1.30;99.90;;;;;;5049680;28;20672;-71
2023/12/02 05:38:31;;;;;;;56.40;29.42;;;1.20;99.90;;;;;;5047288;28;20338;-69
2023/12/02 05:40:58;;;;;;;52.10;27.15;;;1.20;99.90;;;;;;5041469;28;20615;-69
2023/12/02 05:43:25;;;;;;;52.13;28.45;;;1.20;99.90;;;;;;5048156;28;20216;-68
2023/12/02 05:45:51;;;;;;;52.50;28.15;;;1.20;99.90;;;;;;5042987;28;20271;-69
2023/12/02 05:48:20;;;;;;;57.30;29.60;;;1.20;99.90;;;;;;5050926;28;20620;-70
2023/12/02 05:50:47;;;;;;;58.35;31.60;;;1.20;99.90;;;;;;5043631;28;20632;-69
2023/12/02 05:53:14;;;;;;;47.47;25.67;;;1.20;99.90;;;;;;5051687;28;20566;-71
2023/12/02 05:55:40;;;;;;;58.15;27.40;;;1.30;99.90;;;;;;5046293;28;20254;-71
2023/12/02 05:58:07;;;;;;;54.55;29.05;;;1.50;99.90;;;;;;5044925;28;20674;-69
2023/12/02 06:00:35;;;;;;;53.67;30.40;;;1.40;99.90;;;;;;5047775;28;20202;-72
2023/12/02 06:03:03;;;;;;;55.72;31.30;;;1.40;99.90;;;;;;5043931;28;20294;-67
2023/12/02 06:05:31;;;;;;;63.75;30.83;;;1.40;99.90;;;;;;5050664;28;20228;-68
2023/12/02 06:07:58;;;;;;;65.93;30.67;;;1.40;99.90;;;;;;5049264;28;20249;-69
2023/12/02 06:10:25;;;;;;;53.60;27.95;;;1.30;99.90;;;;;;5051440;28;20678;-69
2023/12/02 06:12:52;;;;;;;57.58;30.95;;;1.30;99.90;;;;;;5046188;28;20264;-72
2023/12/02 06:15:19;;;;;;;59.30;31.98;;;1.40;99.90;;;;;;5047831;28;20251;-71
2023/12/02 06:17:46;;;;;;;51.03;29.30;;;1.30;99.90;;;;;;5050649;28;20227;-70
2023/12/02 06:20:13;;;;;;;56.40;28.25;;;1.40;99.90;;;;;;5051159;28;20472;-69
2023/12/02 06:22:41;;;;;;;61.47;32.00;;;1.40;99.90;;;;;;5045801;28;20211;-68
2023/12/02 06:25:09;;;;;;;63.60;31.75;;;1.50;99.90;;;;;;5047269;28;20224;-70
2023/12/02 06:27:36;;;;;;;71.55;33.42;;;1.40;99.90;;;;;;5046745;28;20201;-71
2023/12/02 06:30:04;;;;;;;62.45;31.83;;;1.30;99.90;;;;;;5051813;28;20258;-69
2023/12/02 06:32:32;;;;;;;69.15;35.33;;;1.30;99.90;;;;;;5053558;28;20265;-70
2023/12/02 06:34:59;;;;;;;73.10;33.88;;;1.30;99.90;;;;;;5042081;28;20622;-69
2023/12/02 06:37:25;;;;;;;68.70;34.20;;;1.30;99.90;;;;;;5053391;28;20608;-71
2023/12/02 06:39:54;;;;;;;77.55;36.03;;;1.30;99.90;;;;;;5043841;28;20361;-70
2023/12/02 06:42:21;;;;;;;53.88;29.95;;;1.30;99.90;;;;;;5052714;28;20204;-68
2023/12/02 06:44:48;;;;;;;56.85;30.00;;;1.40;99.90;;;;;;5046420;28;20681;-71
2023/12/02 06:47:15;;;;;;;63.17;32.03;;;1.40;99.90;;;;;;5049207;28;20583;-68
2023/12/02 06:49:42;;;;;;;60.53;31.33;;;1.40;99.90;;;;;;5044999;28;20279;-70
2023/12/02 06:52:09;;;;;;;68.10;33.60;;;1.30;99.90;;;;;;5042247;28;20574;-67
2023/12/02 06:54:37;;;;;;;52.22;30.15;;;1.30;99.90;;;;;;5048165;28;20223;-67
2023/12/02 06:57:06;;;;;;;57.28;30.48;;;1.30;99.90;;;;;;5043966;28;20283;-69
2023/12/02 06:59:33;;;;;;;67.55;31.52;;;1.30;99.90;;;;;;5049512;28;20204;-68
2023/12/02 07:02:00;;;;;;;70.13;33.83;;;1.30;99.90;;;;;;5051963;28;20236;-69
2023/12/02 07:04:28;;;;;;;80.13;43.33;;;1.30;99.90;;;;;;5043483;28;20852;-67
2023/12/02 07:06:55;;;;;;;75.65;35.05;;;1.20;99.90;;;;;;5050170;28;20289;-66
2023/12/02 07:09:22;;;;;;;78.78;36.33;;;1.20;99.90;;;;;;5041437;28;20192;-68
2023/12/02 07:11:51;;;;;;;79.13;34.00;;;1.20;99.90;;;;;;5048186;28;20281;-67
2023/12/02 07:14:19;;;;;;;90.47;38.83;;;1.20;99.90;;;;;;5051037;28;20739;-70
2023/12/02 07:16:46;;;;;;;75.93;34.30;;;1.30;99.90;;;;;;5049135;28;20192;-68
2023/12/02 07:19:13;;;;;;;70.22;36.75;;;1.30;99.90;;;;;;5046319;28;20439;-71
2023/12/02 07:21:40;;;;;;;73.43;35.90;;;1.40;99.90;;;;;;5042102;28;20203;-67
2023/12/02 07:24:09;;;;;;;60.85;31.00;;;1.30;99.90;;;;;;5048059;28;20306;-70
2023/12/02 07:26:36;;;;;;;72.32;34.67;;;1.30;99.90;;;;;;5044195;28;20233;-66
2023/12/02 07:29:03;;;;;;;63.50;32.63;;;1.20;99.90;;;;;;5048438;28;20217;-69
2023/12/02 07:31:31;;;;;;;65.47;30.35;;;1.30;99.90;;;;;;5045125;28;20306;-70
2023/12/02 07:33:58;;;;;;;72.35;34.40;;;1.30;99.90;;;;;;5047469;28;20227;-68
2023/12/02 07:36:25;;;;;;;59.85;31.55;;;1.20;99.90;;;;;;5042138;28;20195;-67
2023/12/02 07:38:52;;;;;;;63.17;32.50;;;1.30;99.90;;;;;;5047714;28;20251;-65
2023/12/02 07:41:19;;;;;;;72.05;34.80;;;1.30;99.90;;;;;;5042447;28;20243;-65
2023/12/02 07:43:46;;;;;;;63.17;33.08;;;1.20;99.90;;;;;;5036894;28;20294;-67
2023/12/02 07:46:15;;;;;;;61.00;34.47;;;1.10;99.90;;;;;;5041945;28;20765;-67
2023/12/02 07:48:43;;;;;;;64.97;32.10;;;1.20;99.90;;;;;;5044939;28;20668;-71
2023/12/02 07:51:11;;;;;;;64.38;32.85;;;1.30;99.90;;;;;;5043997;28;20213;-68
2023/12/02 07:53:38;;;;;;;59.20;30.33;;;1.30;99.90;;;;;;5040635;28;20203;-68
2023/12/02 07:56:06;;;;;;;77.35;32.72;;;1.30;99.90;;;;;;5041177;28;20243;-70
2023/12/02 07:58:33;;;;;;;65.30;33.00;;;1.20;99.90;;;;;;5041176;28;20208;-68
2023/12/02 08:01:01;;;;;;;57.95;31.25;;;1.20;99.90;;;;;;5039888;28;20740;-68
2023/12/02 08:03:28;;;;;;;60.00;29.60;;;1.30;99.90;;;;;;5049621;28;20670;-71
2023/12/02 08:05:56;;;;;;;58.85;33.15;;;1.30;99.90;;;;;;5044981;28;20229;-69
2023/12/02 08:08:23;;;;;;;63.63;31.52;;;1.30;99.90;;;;;;5050684;28;20228;-70
2023/12/02 08:10:50;;;;;;;56.00;31.02;;;1.20;99.90;;;;;;5042199;28;20467;-68
2023/12/02 08:13:17;;;;;;;68.82;35.55;;;1.30;99.90;;;;;;5042357;28;20724;-67
2023/12/02 08:15:44;;;;;;;56.95;29.67;;;1.40;99.90;;;;;;5040726;28;20212;-65
2023/12/02 08:18:11;;;;;;;64.97;31.63;;;1.40;99.90;;;;;;5045771;28;20235;-71
2023/12/02 08:20:38;;;;;;;55.28;29.80;;;1.50;99.90;;;;;;5044729;28;20230;-69
2023/12/02 08:23:06;;;;;;;49.55;28.05;;;1.50;99.90;;;;;;5045681;28;20200;-67
2023/12/02 08:25:33;;;;;;;59.78;31.27;;;1.60;99.90;;;;;;5050820;28;20232;-68
2023/12/02 08:28:02;;;;;;;64.07;32.83;;;1.70;99.90;;;;;;5006857;28;1183090;-66
2023/12/02 08:30:29;;;;;;;62.17;33.17;;;1.70;99.90;;;;;;5041205;28;20249;-68
2023/12/02 08:33:07;;;;;;;61.30;32.35;;;1.70;99.90;;;;;;5046546;28;21153;-68
2023/12/02 08:35:34;;;;;;;57.30;30.88;;;1.60;99.90;;;;;;5044308;28;20227;-69
2023/12/02 08:38:03;;;;;;;56.65;31.17;;;1.70;99.90;;;;;;5048610;28;20294;-67
2023/12/02 08:40:33;;;;;;;54.15;28.50;;;1.70;99.90;;;;;;5048658;28;20226;-68
2023/12/02 08:43:00;;;;;;;58.23;29.70;;;1.80;99.90;;;;;;5046030;28;20247;-67
2023/12/02 08:45:29;;;;;;;58.85;27.15;;;1.90;99.90;;;;;;5047481;28;20468;-68
2023/12/02 08:47:58;;;;;;;53.90;28.63;;;2.00;99.90;;;;;;5048928;28;20215;-67
2023/12/02 08:50:26;;;;;;;56.58;27.95;;;1.90;99.90;;;;;;5048765;28;20271;-72
2023/12/02 08:52:53;;;;;;;48.25;26.80;;;2.00;99.90;;;;;;5045561;28;20289;-68
2023/12/02 08:55:21;;;;;;;54.70;29.92;;;2.10;99.90;;;;;;5045512;28;20235;-67
2023/12/02 08:57:49;;;;;;;56.95;30.73;;;2.00;99.90;;;;;;5049524;28;20206;-69
2023/12/02 09:00:17;;;;;;;49.63;28.77;;;2.00;99.90;;;;;;5049487;28;20211;-66
2023/12/02 09:02:45;;;;;;;50.40;28.05;;;2.00;99.90;;;;;;5047742;28;20213;-68
2023/12/02 09:05:12;;;;;;;53.03;29.35;;;2.00;99.90;;;;;;5049744;28;20238;-67
2023/12/02 09:07:43;;;;;;;45.90;24.88;;;2.10;99.90;;;;;;5047239;28;20312;-71
2023/12/02 09:10:11;;;;;;;49.40;30.17;;;2.10;99.90;;;;;;5048257;28;20583;-70
2023/12/02 09:12:38;;;;;;;52.88;27.73;;;2.20;99.90;;;;;;5049453;28;20289;-68
2023/12/02 09:15:29;;;;;;;50.10;27.45;;;2.10;99.90;;;;;;5047932;28;20325;-70
2023/12/02 09:18:12;;;;;;;44.55;26.20;;;2.20;99.90;;;;;;5047925;28;20215;-67
2023/12/02 09:20:47;;;;;;;37.13;21.67;;;2.20;99.90;;;;;;5045891;28;20326;-65
2023/12/02 09:23:16;;;;;;;48.30;25.38;;;2.20;99.90;;;;;;5043224;28;20575;-66
2023/12/02 09:25:44;;;;;;;40.22;25.70;;;2.20;99.90;;;;;;5048417;28;20281;-68
2023/12/02 09:28:18;;;;;;;42.00;23.80;;;2.30;99.90;;;;;;5045110;28;21008;-66
2023/12/02 09:31:06;;;;;;;41.03;24.05;;;2.30;99.90;;;;;;5046632;28;20656;-67
2023/12/02 09:33:34;;;;;;;45.60;23.83;;;2.40;99.90;;;;;;5045408;28;20272;-67
2023/12/02 09:36:03;;;;;;;42.40;24.05;;;2.50;99.90;;;;;;5047768;28;20210;-69
2023/12/02 09:38:30;;;;;;;40.55;25.25;;;2.50;99.90;;;;;;5047156;28;20298;-67
2023/12/02 09:41:32;;;;;;;43.78;25.42;;;2.50;99.90;;;;;;5045622;28;20970;-69
2023/12/02 09:44:09;;;;;;;46.85;25.75;;;2.30;99.90;;;;;;5048032;28;20234;-69
2023/12/02 09:46:52;;;;;;;46.90;26.25;;;2.20;99.90;;;;;;5049848;28;20353;-67
2023/12/02 09:49:30;;;;;;;46.35;24.35;;;2.30;99.90;;;;;;5042709;28;20200;-65
2023/12/02 09:52:11;;;;;;;43.63;25.33;;;2.30;99.90;;;;;;5048348;28;20576;-66
2023/12/02 09:54:46;;;;;;;35.95;23.42;;;2.40;99.90;;;;;;5039313;28;20243;-63
2023/12/02 09:57:25;;;;;;;37.63;21.25;;;2.40;99.90;;;;;;5046399;28;20228;-69
2023/12/02 10:00:05;;;;;;;43.20;23.35;;;2.40;99.90;;;;;;5036783;28;20228;-65
2023/12/02 10:02:59;;;;;;;35.60;22.20;;;2.50;99.90;;;;;;5043902;28;20605;-70
2023/12/02 10:05:26;;;;;;;44.38;23.63;;;2.80;99.90;;;;;;5039255;28;20494;-67
2023/12/02 10:08:03;;;;;;;39.13;23.52;;;2.80;99.90;;;;;;5049031;28;20306;-65
2023/12/02 10:10:40;;;;;;;39.15;23.40;;;2.90;99.90;;;;;;5040191;28;20209;-68
2023/12/02 10:13:18;;;;;;;36.60;23.33;;;3.00;99.90;;;;;;5049969;28;20237;-68
2023/12/02 10:15:48;;;;;;;41.30;24.70;;;2.90;99.90;;;;;;5051201;28;20289;-72
2023/12/02 10:18:18;;;;;;;42.80;23.52;;;3.10;99.90;;;;;;5051552;28;20516;-67
2023/12/02 10:20:51;;;;;;;40.00;23.02;;;3.00;99.90;;;;;;5042319;28;20735;-70
2023/12/02 10:23:25;;;;;;;43.58;24.48;;;2.90;99.90;;;;;;5046987;28;20259;-67
2023/12/02 10:26:05;;;;;;;43.08;23.73;;;2.80;99.90;;;;;;5046019;28;20225;-67
2023/12/02 10:28:45;;;;;;;40.40;25.35;;;2.70;99.90;;;;;;5048571;28;20302;-69
2023/12/02 10:31:24;;;;;;;42.30;24.23;;;2.60;99.90;;;;;;5044370;28;20202;-70
2023/12/02 10:34:01;;;;;;;44.35;24.90;;;2.60;99.90;;;;;;5044828;28;20207;-69
2023/12/02 10:36:31;;;;;;;41.90;24.42;;;2.60;99.90;;;;;;5044036;28;20207;-66
2023/12/02 10:39:09;;;;;;;38.60;24.25;;;2.60;99.90;;;;;;5046376;28;20208;-69
2023/12/02 10:41:43;;;;;;;49.17;27.73;;;2.70;99.90;;;;;;5045271;28;20206;-67
2023/12/02 10:44:11;;;;;;;46.88;25.90;;;2.60;99.90;;;;;;5039930;28;20240;-70
2023/12/02 10:46:41;;;;;;;50.05;28.30;;;2.50;99.90;;;;;;5045140;28;20248;-69
2023/12/02 10:49:11;;;;;;;52.15;27.33;;;2.40;99.90;;;;;;5042821;28;20205;-69
2023/12/02 10:51:42;;;;;;;50.25;27.95;;;2.50;99.90;;;;;;5047218;28;20220;-72
2023/12/02 10:54:10;;;;;;;44.38;28.35;;;2.50;99.90;;;;;;5049575;28;20227;-72
2023/12/02 10:56:40;;;;;;;56.08;30.70;;;2.50;99.90;;;;;;5052097;28;20253;-69
2023/12/02 10:59:07;;;;;;;49.63;27.40;;;2.60;99.90;;;;;;5043917;28;20262;-66
2023/12/02 11:01:40;;;;;;;49.53;27.92;;;2.70;99.90;;;;;;5050025;28;20203;-69
2023/12/02 11:04:18;;;;;;;44.55;26.60;;;2.60;99.90;;;;;;5047243;28;20228;-69
2023/12/02 11:06:51;;;;;;;42.00;27.17;;;2.50;99.90;;;;;;5065860;23;20220;-83
2023/12/02 11:09:27;;;;;;;44.97;26.42;;;2.60;99.90;;;;;;5059881;28;20191;-84
2023/12/02 11:12:03;;;;;;;50.00;27.70;;;2.70;99.90;;;;;;5059393;28;20243;-85
2023/12/02 11:14:43;;;;;;;46.60;26.50;;;2.70;99.90;;;;;;5036802;28;20203;-84
2023/12/02 11:17:23;;;;;;;45.93;28.40;;;2.80;99.90;;;;;;5027085;28;20266;-85
2023/12/02 11:20:08;;;;;;;42.80;26.33;;;3.00;99.90;;;;;;5021251;28;20454;-84
2023/12/02 11:22:57;;;;;;;52.80;29.65;;;3.00;99.90;;;;;;5020724;28;20232;-85
2023/12/02 11:25:33;;;;;;;52.78;27.70;;;3.10;99.90;;;;;;5021654;28;20244;-84
2023/12/02 11:28:05;;;;;;;50.25;29.35;;;3.00;99.90;;;;;;5034528;28;20267;-85
2023/12/02 11:31:10;;;;;;;49.60;27.67;;;2.80;99.90;;;;;;5040713;28;20185;-85
2023/12/02 11:33:50;;;;;;;47.38;28.38;;;2.80;99.90;;;;;;5034306;28;20194;-85
2023/12/02 11:36:27;;;;;;;47.20;29.23;;;2.70;99.90;;;;;;5043382;28;20365;-85
2023/12/02 11:39:10;;;;;;;45.33;26.95;;;2.70;99.90;;;;;;5022181;28;20217;-86
2023/12/02 11:41:50;;;;;;;49.22;27.55;;;2.80;99.90;;;;;;5028482;28;20205;-84
2023/12/02 11:44:25;;;;;;;48.17;25.23;;;2.80;99.90;;;;;;5022560;28;20208;-85
2023/12/02 11:47:17;;;;;;;55.60;27.65;;;2.80;99.90;;;;;;5030414;28;20224;-84
2023/12/02 11:49:54;;;;;;;49.55;29.52;;;2.70;99.90;;;;;;5044540;28;20209;-84
2023/12/02 11:52:28;;;;;;;50.08;31.27;;;2.70;99.90;;;;;;5027043;28;20200;-85
2023/12/02 11:55:06;;;;;;;50.13;26.55;;;2.80;99.90;;;;;;5026424;28;20208;-86
2023/12/02 11:57:45;;;;;;;54.10;29.42;;;2.70;99.90;;;;;;5036554;28;20192;-84
2023/12/02 12:00:22;;;;;;;46.65;26.85;;;2.70;99.90;;;;;;5027930;28;20209;-84
2023/12/02 12:03:11;;;;;;;54.20;30.85;;;2.70;99.90;;;;;;5014292;28;20201;-84
2023/12/02 12:05:45;;;;;;;51.08;28.15;;;2.80;99.90;;;;;;5017709;28;20271;-85
2023/12/02 12:08:19;;;;;;;49.85;27.05;;;2.80;99.90;;;;;;5026473;28;20235;-85
2023/12/02 12:10:49;;;;;;;47.65;27.30;;;2.90;99.90;;;;;;5027487;28;20211;-85
2023/12/02 12:13:21;;;;;;;56.00;29.73;;;3.00;99.90;;;;;;5041079;28;20200;-84
2023/12/02 12:15:49;;;;;;;47.45;26.15;;;2.90;99.90;;;;;;5051823;28;20212;-84
2023/12/02 12:18:17;;;;;;;49.67;27.45;;;2.90;99.90;;;;;;5053420;28;21104;-84
2023/12/02 12:20:44;;;;;;;46.90;26.30;;;2.80;99.90;;;;;;5029448;28;20208;-85
2023/12/02 12:23:12;;;;;;;48.50;28.42;;;2.90;99.90;;;;;;5035364;28;20206;-86
2023/12/02 12:25:42;;;;;;;55.33;28.23;;;2.80;99.90;;;;;;5036688;28;20231;-85
2023/12/02 12:28:09;;;;;;;50.03;28.63;;;3.00;99.90;;;;;;5038555;28;20236;-85
2023/12/02 12:30:44;;;;;;;42.15;26.52;;;2.90;99.90;;;;;;5038875;28;20208;-85
2023/12/02 12:33:13;;;;;;;40.63;23.80;;;2.90;99.90;;;;;;5034995;28;20196;-84
2023/12/02 12:35:40;;;;;;;41.88;25.85;;;2.80;99.90;;;;;;5035148;28;20249;-86
2023/12/02 12:38:09;;;;;;;45.92;26.02;;;2.50;99.90;;;;;;5028977;28;20206;-86
2023/12/02 12:40:37;;;;;;;45.53;23.70;;;2.70;99.90;;;;;;5036080;28;20189;-86
2023/12/02 12:43:07;;;;;;;45.20;26.15;;;2.70;99.90;;;;;;5042247;28;20193;-86
2023/12/02 12:45:34;;;;;;;44.53;25.60;;;2.80;99.90;;;;;;5044704;28;20224;-85
2023/12/02 12:48:10;;;;;;;54.42;29.08;;;2.80;99.90;;;;;;5037834;28;20246;-88